Time;durP1;ratioP1;P1;durP2;ratioP2;P2;SDS_P1;SDS_P2;PMS_P1;PMS_P2;Temp;Humidity;BMP_temperature;BMP_pressure;BME280_temperature;BME280_humidity;BME280_pressure;Samples;Min_cycle;Max_cycle;Signal;HPM_P1;HPM_P2
2023/12/02 00:02:25;;;;;;;33.63;15.63;;;;;;;;;;4973756;28;20077;-78
2023/12/02 00:04:51;;;;;;;31.27;15.50;;;;;;;;;;4975785;28;20038;-78
2023/12/02 00:07:17;;;;;;;39.15;19.20;;;;;;;;;;4954239;28;20134;-77
2023/12/02 00:09:43;;;;;;;48.25;23.13;;;;;;;;;;4954881;28;20398;-76
2023/12/02 00:12:10;;;;;;;78.40;28.88;;;;;;;;;;4970971;28;20061;-76
2023/12/02 00:14:35;;;;;;;79.63;29.85;;;;;;;;;;4971289;28;20045;-76
2023/12/02 00:17:02;;;;;;;76.05;28.85;;;;;;;;;;4953992;28;20055;-78
2023/12/02 00:19:28;;;;;;;50.53;21.98;;;;;;;;;;4971546;28;20405;-76
2023/12/02 00:21:54;;;;;;;47.00;21.33;;;;;;;;;;4970666;28;20134;-76
2023/12/02 00:24:20;;;;;;;37.33;18.45;;;;;;;;;;4953737;28;20553;-76
2023/12/02 00:26:46;;;;;;;60.17;24.13;;;;;;;;;;4969747;28;20530;-75
2023/12/02 00:29:12;;;;;;;37.53;18.50;;;;;;;;;;4971496;28;20519;-77
2023/12/02 00:31:37;;;;;;;39.25;18.25;;;;;;;;;;4971114;28;20118;-76
2023/12/02 00:34:04;;;;;;;42.92;19.25;;;;;;;;;;4970821;28;20047;-75
2023/12/02 00:36:31;;;;;;;40.03;17.70;;;;;;;;;;4970953;28;20046;-76
2023/12/02 00:38:57;;;;;;;35.17;19.58;;;;;;;;;;4938218;28;20126;-77
2023/12/02 00:41:23;;;;;;;37.28;19.05;;;;;;;;;;4974536;28;20089;-77
2023/12/02 00:43:49;;;;;;;42.30;18.73;;;;;;;;;;4971359;28;20605;-77
2023/12/02 00:46:15;;;;;;;33.08;17.35;;;;;;;;;;4975313;28;20045;-77
2023/12/02 00:48:41;;;;;;;36.35;18.02;;;;;;;;;;4973884;28;20046;-76
2023/12/02 00:51:07;;;;;;;32.40;18.40;;;;;;;;;;4974332;28;20749;-76
2023/12/02 00:53:33;;;;;;;29.52;16.77;;;;;;;;;;4957389;28;20034;-76
2023/12/02 00:55:59;;;;;;;26.25;16.27;;;;;;;;;;4974441;28;20509;-76
2023/12/02 00:58:25;;;;;;;38.53;18.88;;;;;;;;;;4974397;28;20031;-77
2023/12/02 01:00:51;;;;;;;39.30;17.70;;;;;;;;;;4973140;28;20531;-77
2023/12/02 01:03:17;;;;;;;41.20;17.90;;;;;;;;;;4974061;28;20071;-76
2023/12/02 01:05:43;;;;;;;29.02;17.13;;;;;;;;;;4941169;28;20532;-76
2023/12/02 01:08:09;;;;;;;42.25;18.40;;;;;;;;;;4974264;28;20516;-76
2023/12/02 01:10:35;;;;;;;38.83;20.42;;;;;;;;;;4974896;28;20046;-78
2023/12/02 01:13:02;;;;;;;41.05;18.98;;;;;;;;;;4975470;28;20050;-77
2023/12/02 01:15:28;;;;;;;41.45;21.10;;;;;;;;;;4975438;28;20416;-76
2023/12/02 01:17:54;;;;;;;30.23;16.65;;;;;;;;;;4975303;28;20043;-77
2023/12/02 01:20:20;;;;;;;28.70;16.52;;;;;;;;;;4976375;28;20124;-76
2023/12/02 01:22:46;;;;;;;33.17;17.05;;;;;;;;;;4935761;28;20062;-75
2023/12/02 01:25:12;;;;;;;16.17;9.70;;;;;;;;;;4987804;28;20618;-77
2023/12/02 01:27:38;;;;;;;25.58;15.52;;;;;;;;;;4988528;28;20061;-76
2023/12/02 01:30:04;;;;;;;37.25;17.75;;;;;;;;;;4986549;28;20540;-77
2023/12/02 01:32:32;;;;;;;22.08;14.13;;;;;;;;;;4955559;28;20061;-76
2023/12/02 01:34:58;;;;;;;34.30;16.85;;;;;;;;;;4990551;28;20425;-78
2023/12/02 01:37:24;;;;;;;29.42;16.02;;;;;;;;;;4990324;28;20035;-77
2023/12/02 01:39:50;;;;;;;32.13;15.52;;;;;;;;;;4986237;28;20649;-76
2023/12/02 01:42:16;;;;;;;23.50;11.27;;;;;;;;;;4928550;28;20086;-77
2023/12/02 01:44:41;;;;;;;31.17;18.35;;;;;;;;;;4974534;28;20078;-77
2023/12/02 01:47:08;;;;;;;40.53;17.63;;;;;;;;;;4941906;28;20039;-76
2023/12/02 01:49:33;;;;;;;38.97;19.77;;;;;;;;;;4979642;28;20465;-76
2023/12/02 01:51:59;;;;;;;31.92;16.92;;;;;;;;;;4975248;28;20034;-77
2023/12/02 01:54:25;;;;;;;27.85;15.82;;;;;;;;;;4976004;28;20121;-76
2023/12/02 01:56:51;;;;;;;34.67;17.02;;;;;;;;;;4974034;28;20057;-78
2023/12/02 01:59:30;;;;;;;32.42;19.02;;;;;;;;;;4974206;28;20030;-77
2023/12/02 02:02:01;;;;;;;15.80;10.65;;;;;;;;;;4973831;28;20111;-76
2023/12/02 02:04:27;;;;;;;25.05;15.32;;;;;;;;;;4973438;28;20058;-75
2023/12/02 02:06:53;;;;;;;35.47;18.58;;;;;;;;;;4956762;28;20034;-76
2023/12/02 02:09:19;;;;;;;33.70;17.42;;;;;;;;;;4960079;28;20057;-77
2023/12/02 02:11:47;;;;;;;20.45;11.98;;;;;;;;;;4975573;28;20042;-76
2023/12/02 02:14:14;;;;;;;31.35;15.93;;;;;;;;;;4987307;28;20035;-77
2023/12/02 02:16:40;;;;;;;39.85;22.80;;;;;;;;;;4992857;28;20070;-77
2023/12/02 02:19:06;;;;;;;22.10;13.93;;;;;;;;;;4974763;28;20090;-77
2023/12/02 02:21:32;;;;;;;43.10;21.42;;;;;;;;;;4974406;28;20047;-77
2023/12/02 02:23:57;;;;;;;31.92;16.77;;;;;;;;;;4974381;28;20046;-77
2023/12/02 02:26:24;;;;;;;35.85;18.10;;;;;;;;;;4973646;28;20576;-76
2023/12/02 02:28:50;;;;;;;33.25;16.88;;;;;;;;;;4956126;28;20109;-77
2023/12/02 02:31:16;;;;;;;34.05;16.92;;;;;;;;;;4973006;28;20047;-76
2023/12/02 02:33:41;;;;;;;35.72;18.40;;;;;;;;;;4955903;28;20100;-77
2023/12/02 02:36:08;;;;;;;29.55;14.98;;;;;;;;;;4972741;28;20062;-76
2023/12/02 02:38:34;;;;;;;35.75;17.00;;;;;;;;;;4973030;28;20519;-76
2023/12/02 02:41:00;;;;;;;18.95;11.35;;;;;;;;;;4968394;28;20070;-77
2023/12/02 02:43:26;;;;;;;28.23;16.48;;;;;;;;;;4971106;28;20070;-75
2023/12/02 02:45:52;;;;;;;24.83;14.52;;;;;;;;;;4954791;28;20039;-76
2023/12/02 02:48:18;;;;;;;29.90;15.20;;;;;;;;;;4954789;28;20113;-76
2023/12/02 02:50:44;;;;;;;13.98;8.52;;;;;;;;;;4972496;28;20080;-76
2023/12/02 02:53:10;;;;;;;17.33;13.55;;;;;;;;;;4954615;28;20127;-75
2023/12/02 02:55:36;;;;;;;25.35;14.65;;;;;;;;;;4955930;28;20039;-75
2023/12/02 02:58:02;;;;;;;25.05;15.45;;;;;;;;;;4941478;28;20042;-76
2023/12/02 03:00:28;;;;;;;19.17;11.23;;;;;;;;;;4972348;28;20114;-75
2023/12/02 03:02:54;;;;;;;5.68;5.07;;;;;;;;;;4955577;28;20089;-76
2023/12/02 03:05:20;;;;;;;36.42;18.88;;;;;;;;;;4972582;28;20050;-75
2023/12/02 03:07:46;;;;;;;33.40;17.77;;;;;;;;;;4972185;28;20042;-75
2023/12/02 03:10:12;;;;;;;33.72;17.85;;;;;;;;;;4971662;28;20051;-76
2023/12/02 03:12:38;;;;;;;23.50;13.50;;;;;;;;;;4972255;28;20049;-76
2023/12/02 03:15:04;;;;;;;35.83;17.63;;;;;;;;;;4954798;28;20046;-77
2023/12/02 03:17:31;;;;;;;38.75;18.20;;;;;;;;;;4973195;28;20045;-76
2023/12/02 03:19:57;;;;;;;34.53;18.83;;;;;;;;;;4973162;28;20046;-77
2023/12/02 03:22:23;;;;;;;31.52;17.88;;;;;;;;;;4973370;28;20043;-76
2023/12/02 03:24:49;;;;;;;36.47;19.17;;;;;;;;;;4974048;28;20054;-76
2023/12/02 03:27:16;;;;;;;12.70;8.57;;;;;;;;;;4972325;28;20043;-76
2023/12/02 03:29:42;;;;;;;6.65;6.15;;;;;;;;;;4973855;28;20059;-76
2023/12/02 03:32:08;;;;;;;6.95;6.38;;;;;;;;;;4978732;28;20038;-76
2023/12/02 03:34:34;;;;;;;27.35;14.05;;;;;;;;;;4960745;28;20521;-76
2023/12/02 03:37:02;;;;;;;30.17;16.13;;;;;;;;;;4976203;28;20133;-77
2023/12/02 03:39:28;;;;;;;15.45;10.38;;;;;;;;;;4954862;28;20042;-76
2023/12/02 03:41:54;;;;;;;26.02;15.13;;;;;;;;;;4971883;28;20051;-77
2023/12/02 03:44:20;;;;;;;38.55;19.67;;;;;;;;;;4971542;28;20065;-75
2023/12/02 03:46:46;;;;;;;41.63;18.67;;;;;;;;;;4954967;28;20043;-76
2023/12/02 03:49:12;;;;;;;36.67;18.45;;;;;;;;;;4938044;28;20042;-76
2023/12/02 03:51:38;;;;;;;31.45;16.67;;;;;;;;;;4970654;28;20598;-77
2023/12/02 03:54:04;;;;;;;23.85;14.93;;;;;;;;;;4954633;28;20552;-76
2023/12/02 03:56:30;;;;;;;32.85;18.20;;;;;;;;;;4971243;28;20054;-77
2023/12/02 03:58:56;;;;;;;41.47;19.20;;;;;;;;;;4971562;28;20049;-76
2023/12/02 04:01:22;;;;;;;37.80;18.67;;;;;;;;;;4970785;28;20051;-77
2023/12/02 04:03:48;;;;;;;40.97;19.00;;;;;;;;;;4969258;28;20498;-75
2023/12/02 04:06:14;;;;;;;39.42;19.52;;;;;;;;;;4953350;28;20094;-77
2023/12/02 04:08:41;;;;;;;30.83;16.25;;;;;;;;;;4970530;28;20045;-76
2023/12/02 04:11:08;;;;;;;31.15;17.88;;;;;;;;;;4970980;28;20417;-75
2023/12/02 04:13:35;;;;;;;28.23;16.83;;;;;;;;;;4971647;28;20097;-76
2023/12/02 04:16:02;;;;;;;31.63;14.93;;;;;;;;;;4972021;28;20039;-77
2023/12/02 04:18:29;;;;;;;19.67;12.05;;;;;;;;;;4958518;28;20133;-76
2023/12/02 04:20:55;;;;;;;36.58;18.80;;;;;;;;;;4984647;28;20089;-77
2023/12/02 04:23:21;;;;;;;39.20;19.50;;;;;;;;;;4978639;28;20058;-76
2023/12/02 04:25:47;;;;;;;22.05;13.20;;;;;;;;;;4978380;28;20042;-75
2023/12/02 04:28:13;;;;;;;9.55;8.13;;;;;;;;;;4978150;28;20181;-76
2023/12/02 04:30:39;;;;;;;29.23;13.98;;;;;;;;;;4976722;28;20092;-75
2023/12/02 04:33:05;;;;;;;25.95;13.30;;;;;;;;;;4974895;28;20049;-76
2023/12/02 04:35:34;;;;;;;35.25;19.92;;;;;;;;;;4960381;28;21201;-76
2023/12/02 04:38:00;;;;;;;13.95;8.85;;;;;;;;;;4978431;28;20101;-76
2023/12/02 04:40:26;;;;;;;9.73;7.28;;;;;;;;;;4977779;28;20153;-74
2023/12/02 04:42:52;;;;;;;38.60;19.92;;;;;;;;;;4959237;28;20057;-75
2023/12/02 04:45:18;;;;;;;31.55;16.58;;;;;;;;;;4974640;28;20039;-75
2023/12/02 04:47:44;;;;;;;39.38;19.27;;;;;;;;;;4959354;28;20129;-75
2023/12/02 04:50:10;;;;;;;35.97;18.98;;;;;;;;;;4979186;28;20128;-75
2023/12/02 04:52:36;;;;;;;30.58;15.98;;;;;;;;;;4966577;28;20074;-75
2023/12/02 04:55:03;;;;;;;26.27;16.13;;;;;;;;;;4967556;28;20031;-76
2023/12/02 04:57:30;;;;;;;32.15;15.68;;;;;;;;;;4981381;28;20130;-77
2023/12/02 04:59:57;;;;;;;37.65;17.17;;;;;;;;;;4976002;28;20493;-76
2023/12/02 05:02:23;;;;;;;32.03;15.38;;;;;;;;;;4959110;28;20050;-75
2023/12/02 05:04:50;;;;;;;17.48;11.02;;;;;;;;;;4970370;28;20051;-74
2023/12/02 05:07:17;;;;;;;32.92;17.13;;;;;;;;;;4995431;28;20049;-75
2023/12/02 05:09:43;;;;;;;31.10;16.77;;;;;;;;;;4977643;28;20050;-75
2023/12/02 05:12:10;;;;;;;25.90;15.57;;;;;;;;;;4961971;28;20042;-76
2023/12/02 05:14:37;;;;;;;38.40;18.52;;;;;;;;;;4979567;28;20046;-76
2023/12/02 05:17:03;;;;;;;36.58;19.65;;;;;;;;;;4977066;28;20093;-76
2023/12/02 05:19:29;;;;;;;43.60;21.85;;;;;;;;;;4960396;28;20062;-76
2023/12/02 05:21:55;;;;;;;44.78;21.35;;;;;;;;;;4977503;28;20062;-75
2023/12/02 05:24:21;;;;;;;38.75;19.88;;;;;;;;;;4977222;28;20077;-77
2023/12/02 05:26:47;;;;;;;41.10;20.13;;;;;;;;;;4977151;28;20509;-75
2023/12/02 05:29:13;;;;;;;44.45;19.25;;;;;;;;;;4959506;28;20592;-76
2023/12/02 05:31:39;;;;;;;35.67;17.95;;;;;;;;;;4985411;28;20059;-85
2023/12/02 05:34:05;;;;;;;35.05;13.85;;;;;;;;;;5400414;23;20076;-83
2023/12/02 05:36:31;;;;;;;28.38;15.13;;;;;;;;;;4988948;28;20061;-82
2023/12/02 05:38:57;;;;;;;20.40;13.30;;;;;;;;;;5007489;28;20046;-82
2023/12/02 05:41:23;;;;;;;19.55;11.63;;;;;;;;;;4998834;28;20097;-82
2023/12/02 05:43:50;;;;;;;34.58;15.45;;;;;;;;;;5006255;28;20054;-82
2023/12/02 05:46:16;;;;;;;24.25;13.48;;;;;;;;;;5002066;28;20119;-83
2023/12/02 05:48:45;;;;;;;38.45;16.98;;;;;;;;;;5005350;28;20046;-84
2023/12/02 05:51:12;;;;;;;31.25;16.55;;;;;;;;;;5000735;28;20053;-82
2023/12/02 05:53:41;;;;;;;32.75;17.05;;;;;;;;;;5082580;23;20062;-83
2023/12/02 05:56:10;;;;;;;27.38;15.65;;;;;;;;;;5239659;23;20334;-84
2023/12/02 05:58:36;;;;;;;32.08;16.73;;;;;;;;;;4993368;28;20465;-85
2023/12/02 06:01:02;;;;;;;15.85;11.25;;;;;;;;;;4997596;28;20050;-84
2023/12/02 06:03:29;;;;;;;28.00;15.73;;;;;;;;;;4971860;28;20083;-80
2023/12/02 06:05:55;;;;;;;19.67;12.50;;;;;;;;;;4972866;28;20050;-81
2023/12/02 06:08:22;;;;;;;38.95;19.35;;;;;;;;;;4985592;28;20050;-83
2023/12/02 06:10:48;;;;;;;44.08;20.23;;;;;;;;;;4983820;28;20038;-81
2023/12/02 06:13:14;;;;;;;35.92;17.77;;;;;;;;;;4988080;28;20058;-77
2023/12/02 06:15:41;;;;;;;38.03;19.73;;;;;;;;;;4989384;28;20046;-81
2023/12/02 06:18:07;;;;;;;16.00;10.43;;;;;;;;;;4994066;28;20046;-81
2023/12/02 06:20:33;;;;;;;48.28;19.90;;;;;;;;;;4986544;28;20105;-79
2023/12/02 06:22:59;;;;;;;41.42;19.67;;;;;;;;;;4965699;28;20047;-79
2023/12/02 06:25:25;;;;;;;44.40;20.20;;;;;;;;;;4975444;28;20609;-79
2023/12/02 06:27:51;;;;;;;40.85;19.60;;;;;;;;;;4976811;28;20043;-80
2023/12/02 06:30:18;;;;;;;33.63;17.27;;;;;;;;;;4960938;28;20057;-81
2023/12/02 06:35:33;;;;;;;19.55;12.02;;;;;;;;;;5136016;23;20181;-81
2023/12/02 06:37:59;;;;;;;34.95;19.52;;;;;;;;;;5005829;28;20035;-79
2023/12/02 06:40:26;;;;;;;38.22;18.23;;;;;;;;;;4959805;28;20055;-78
2023/12/02 06:42:52;;;;;;;42.17;19.27;;;;;;;;;;4965431;28;20399;-82
2023/12/02 06:45:18;;;;;;;23.75;11.90;;;;;;;;;;4975436;28;20094;-82
2023/12/02 06:47:44;;;;;;;35.08;17.90;;;;;;;;;;4961594;28;20039;-81
2023/12/02 06:50:10;;;;;;;37.42;17.83;;;;;;;;;;4976737;28;20102;-82
2023/12/02 06:52:36;;;;;;;13.30;10.20;;;;;;;;;;4983593;28;20051;-83
2023/12/02 06:55:03;;;;;;;32.10;15.23;;;;;;;;;;4971199;28;20055;-84
2023/12/02 06:57:31;;;;;;;29.77;16.83;;;;;;;;;;4977539;28;20055;-83
2023/12/02 06:59:57;;;;;;;36.35;17.85;;;;;;;;;;4975418;28;20044;-81
2023/12/02 07:02:23;;;;;;;39.67;18.33;;;;;;;;;;4970603;28;20079;-76
2023/12/02 07:04:49;;;;;;;14.95;9.02;;;;;;;;;;4953438;28;20166;-77
2023/12/02 07:07:15;;;;;;;27.15;13.13;;;;;;;;;;4962070;28;20065;-80
2023/12/02 07:09:41;;;;;;;37.70;19.63;;;;;;;;;;4947988;28;20054;-80
2023/12/02 07:12:07;;;;;;;42.92;21.35;;;;;;;;;;4968882;28;20039;-81
2023/12/02 07:14:33;;;;;;;36.88;18.27;;;;;;;;;;5119763;23;20049;-81
2023/12/02 07:16:59;;;;;;;30.52;16.20;;;;;;;;;;4978932;28;20444;-79
2023/12/02 07:19:25;;;;;;;40.95;19.20;;;;;;;;;;4984235;28;20047;-81
2023/12/02 07:21:51;;;;;;;35.88;18.02;;;;;;;;;;4955190;28;20066;-80
2023/12/02 07:24:17;;;;;;;35.72;20.08;;;;;;;;;;4989136;28;20481;-82
2023/12/02 07:26:44;;;;;;;20.75;11.88;;;;;;;;;;4990437;28;20039;-80
2023/12/02 07:29:09;;;;;;;43.70;20.45;;;;;;;;;;4972548;29;20062;-79
2023/12/02 07:31:36;;;;;;;32.63;17.38;;;;;;;;;;4974992;28;20074;-80
2023/12/02 07:34:02;;;;;;;45.08;20.77;;;;;;;;;;4991215;28;20053;-81
2023/12/02 07:36:28;;;;;;;40.47;19.75;;;;;;;;;;4991755;28;20563;-79
2023/12/02 07:38:54;;;;;;;44.38;19.98;;;;;;;;;;4973941;28;20042;-82
2023/12/02 07:41:20;;;;;;;24.77;15.85;;;;;;;;;;4975472;28;20090;-81
2023/12/02 07:43:46;;;;;;;30.55;16.55;;;;;;;;;;4971140;28;20043;-81
2023/12/02 07:46:12;;;;;;;43.50;17.95;;;;;;;;;;4978507;28;20033;-81
2023/12/02 07:48:38;;;;;;;41.42;20.15;;;;;;;;;;4985791;28;20062;-80
2023/12/02 07:51:04;;;;;;;44.78;22.25;;;;;;;;;;4976372;28;20039;-80
2023/12/02 07:53:30;;;;;;;41.65;19.73;;;;;;;;;;4974546;28;20023;-81
2023/12/02 07:55:56;;;;;;;45.25;21.98;;;;;;;;;;4980515;28;20070;-81
2023/12/02 07:58:22;;;;;;;37.92;20.95;;;;;;;;;;4981455;28;20050;-82
2023/12/02 08:00:49;;;;;;;22.25;13.32;;;;;;;;;;4994545;28;20020;-81
2023/12/02 08:03:14;;;;;;;46.38;22.25;;;;;;;;;;4977286;28;20051;-81
2023/12/02 08:05:40;;;;;;;38.97;19.33;;;;;;;;;;4994099;28;20050;-81
2023/12/02 08:08:06;;;;;;;33.08;15.40;;;;;;;;;;4987496;28;20079;-83
2023/12/02 08:10:32;;;;;;;36.80;18.50;;;;;;;;;;4959379;28;20046;-81
2023/12/02 08:12:58;;;;;;;40.92;20.13;;;;;;;;;;4987459;28;20038;-81
2023/12/02 08:15:25;;;;;;;32.83;17.40;;;;;;;;;;4983639;28;20070;-81
2023/12/02 08:17:51;;;;;;;48.25;22.42;;;;;;;;;;4951492;29;20078;-81
2023/12/02 08:20:18;;;;;;;29.55;15.85;;;;;;;;;;4980719;28;20047;-80
2023/12/02 08:22:44;;;;;;;44.13;21.45;;;;;;;;;;4991112;28;20073;-81
2023/12/02 08:25:10;;;;;;;17.42;12.45;;;;;;;;;;4974316;28;20047;-79
2023/12/02 08:27:36;;;;;;;21.63;15.25;;;;;;;;;;4975617;28;20054;-81
2023/12/02 08:30:05;;;;;;;12.63;10.43;;;;;;;;;;4976009;28;20050;-81
2023/12/02 08:32:31;;;;;;;19.63;12.73;;;;;;;;;;4973009;28;20045;-79
2023/12/02 08:34:57;;;;;;;11.23;9.93;;;;;;;;;;4975198;28;20338;-81
2023/12/02 08:37:23;;;;;;;23.95;14.15;;;;;;;;;;4978118;28;20057;-79
2023/12/02 08:39:49;;;;;;;19.65;11.65;;;;;;;;;;4983358;28;20031;-78
2023/12/02 08:42:15;;;;;;;19.17;10.98;;;;;;;;;;4972076;28;20051;-81
2023/12/02 08:44:41;;;;;;;16.85;12.15;;;;;;;;;;4946385;28;20058;-81
2023/12/02 08:47:08;;;;;;;16.27;10.43;;;;;;;;;;4962237;28;20414;-78
2023/12/02 08:49:34;;;;;;;22.90;13.07;;;;;;;;;;4979977;28;20047;-80
2023/12/02 08:52:00;;;;;;;7.40;6.65;;;;;;;;;;4952780;29;20588;-81
2023/12/02 08:54:25;;;;;;;14.43;10.18;;;;;;;;;;4963753;28;20085;-80
2023/12/02 08:56:51;;;;;;;22.27;12.95;;;;;;;;;;4963865;28;20137;-80
2023/12/02 08:59:17;;;;;;;27.35;12.55;;;;;;;;;;4981803;28;20105;-79
2023/12/02 09:01:43;;;;;;;22.80;15.13;;;;;;;;;;4958563;28;20043;-78
2023/12/02 09:04:09;;;;;;;16.38;9.48;;;;;;;;;;4973397;28;20134;-78
2023/12/02 09:06:37;;;;;;;25.42;13.75;;;;;;;;;;4964071;28;20045;-79
2023/12/02 09:09:03;;;;;;;25.15;13.63;;;;;;;;;;4944608;28;20038;-79
2023/12/02 09:11:29;;;;;;;13.50;8.85;;;;;;;;;;4959986;28;20065;-78
2023/12/02 09:13:55;;;;;;;23.70;13.93;;;;;;;;;;4959773;28;20062;-79
2023/12/02 09:16:28;;;;;;;20.95;12.93;;;;;;;;;;4948783;28;20058;-78
2023/12/02 09:18:54;;;;;;;17.65;12.82;;;;;;;;;;4989709;28;20056;-78
2023/12/02 09:21:20;;;;;;;17.40;11.70;;;;;;;;;;4942317;28;20043;-79
2023/12/02 09:23:47;;;;;;;18.48;11.00;;;;;;;;;;4991897;28;20047;-79
2023/12/02 09:26:31;;;;;;;25.05;14.63;;;;;;;;;;4978037;28;20039;-78
2023/12/02 09:28:57;;;;;;;21.52;12.32;;;;;;;;;;4991014;28;20054;-80
2023/12/02 09:31:23;;;;;;;27.95;15.60;;;;;;;;;;4972723;28;20057;-81
2023/12/02 09:34:12;;;;;;;29.30;15.82;;;;;;;;;;4970760;28;20062;-80
2023/12/02 09:36:41;;;;;;;27.83;15.60;;;;;;;;;;4977271;28;20094;-80
2023/12/02 09:39:08;;;;;;;28.25;14.68;;;;;;;;;;4975849;28;20055;-81
2023/12/02 09:41:54;;;;;;;18.55;11.82;;;;;;;;;;4971278;28;20062;-84
2023/12/02 09:44:23;;;;;;;26.02;14.60;;;;;;;;;;4991003;28;20070;-81
2023/12/02 09:46:53;;;;;;;34.35;13.00;;;;;;;;;;4971942;28;20035;-80
2023/12/02 09:49:26;;;;;;;29.07;15.60;;;;;;;;;;4966570;28;20081;-81
2023/12/02 09:51:59;;;;;;;26.95;15.23;;;;;;;;;;4981935;28;20051;-80
2023/12/02 09:54:43;;;;;;;24.38;15.00;;;;;;;;;;4975964;28;20098;-82
2023/12/02 09:57:16;;;;;;;28.48;15.88;;;;;;;;;;4984065;28;20042;-79
2023/12/02 10:00:01;;;;;;;17.48;10.40;;;;;;;;;;4945081;28;20051;-79
2023/12/02 10:02:33;;;;;;;28.40;15.45;;;;;;;;;;4958755;28;20066;-79
2023/12/02 10:04:59;;;;;;;28.20;16.42;;;;;;;;;;4975523;28;20062;-76
2023/12/02 10:07:44;;;;;;;29.27;15.75;;;;;;;;;;4974366;28;20109;-78
2023/12/02 10:10:10;;;;;;;17.80;11.88;;;;;;;;;;4974129;28;20047;-77
2023/12/02 10:12:40;;;;;;;22.70;12.25;;;;;;;;;;4974072;28;20062;-77
2023/12/02 10:15:06;;;;;;;28.23;14.88;;;;;;;;;;4940523;28;20061;-76
2023/12/02 10:17:38;;;;;;;27.35;14.77;;;;;;;;;;4971331;28;20424;-80
2023/12/02 10:20:09;;;;;;;33.10;16.00;;;;;;;;;;4981923;28;20042;-80
2023/12/02 10:22:37;;;;;;;11.38;8.05;;;;;;;;;;4964522;29;20051;-80
2023/12/02 10:25:04;;;;;;;31.02;16.42;;;;;;;;;;4963582;28;20078;-78
2023/12/02 10:27:32;;;;;;;28.80;14.63;;;;;;;;;;4967726;28;20067;-80
2023/12/02 10:30:06;;;;;;;25.52;15.00;;;;;;;;;;4969841;28;20043;-80
2023/12/02 10:32:38;;;;;;;22.05;12.63;;;;;;;;;;4976119;28;20074;-81
2023/12/02 10:35:20;;;;;;;25.42;16.70;;;;;;;;;;4976984;28;20054;-80
2023/12/02 10:37:50;;;;;;;13.20;8.77;;;;;;;;;;4981420;28;20043;-81
2023/12/02 10:40:15;;;;;;;19.08;11.05;;;;;;;;;;4980851;28;20042;-80
2023/12/02 10:42:51;;;;;;;21.25;13.65;;;;;;;;;;4974781;28;20071;-83
2023/12/02 10:45:17;;;;;;;24.85;12.90;;;;;;;;;;4965421;28;20105;-79
2023/12/02 10:47:45;;;;;;;20.40;11.70;;;;;;;;;;4974171;28;20035;-78
2023/12/02 10:50:11;;;;;;;22.75;13.18;;;;;;;;;;4959252;28;20138;-78
2023/12/02 10:52:36;;;;;;;24.02;13.40;;;;;;;;;;4964673;28;20070;-80
2023/12/02 10:55:03;;;;;;;23.95;13.18;;;;;;;;;;4969551;28;20077;-80
2023/12/02 10:57:31;;;;;;;20.80;13.18;;;;;;;;;;4948051;28;20054;-77
2023/12/02 11:00:07;;;;;;;26.48;13.70;;;;;;;;;;4967478;28;20031;-78
2023/12/02 11:02:33;;;;;;;21.08;11.48;;;;;;;;;;4978652;28;20073;-78
2023/12/02 11:05:23;;;;;;;34.05;15.32;;;;;;;;;;4969754;28;20054;-78
2023/12/02 11:07:51;;;;;;;23.40;14.55;;;;;;;;;;4968517;28;20077;-78
2023/12/02 11:10:25;;;;;;;24.13;13.95;;;;;;;;;;4948773;28;20050;-78
2023/12/02 11:12:51;;;;;;;20.83;13.45;;;;;;;;;;4976510;28;20058;-77
2023/12/02 11:15:21;;;;;;;23.85;13.50;;;;;;;;;;4964460;28;20054;-78
2023/12/02 11:18:00;;;;;;;12.23;6.72;;;;;;;;;;4961307;28;20066;-78
2023/12/02 11:20:26;;;;;;;27.65;13.77;;;;;;;;;;4971658;28;20113;-80
2023/12/02 11:23:07;;;;;;;23.38;12.75;;;;;;;;;;4996458;23;20146;-80
2023/12/02 11:25:33;;;;;;;30.83;14.48;;;;;;;;;;4976304;28;20047;-81
2023/12/02 11:28:03;;;;;;;24.83;15.63;;;;;;;;;;4975745;28;20039;-79
2023/12/02 11:30:29;;;;;;;34.00;17.50;;;;;;;;;;4957277;28;20034;-79
2023/12/02 11:33:03;;;;;;;30.38;14.30;;;;;;;;;;4978113;28;20209;-80
2023/12/02 11:35:33;;;;;;;31.15;16.92;;;;;;;;;;4976955;28;20039;-79
2023/12/02 11:38:18;;;;;;;32.30;17.58;;;;;;;;;;4977215;28;20063;-80
2023/12/02 11:40:53;;;;;;;23.30;12.32;;;;;;;;;;4978310;28;20039;-79
2023/12/02 11:43:38;;;;;;;18.48;11.23;;;;;;;;;;4945017;28;20108;-79
2023/12/02 11:46:05;;;;;;;23.02;11.05;;;;;;;;;;4969215;28;20038;-80
2023/12/02 11:48:34;;;;;;;16.48;11.23;;;;;;;;;;4961006;28;20508;-81
2023/12/02 11:51:27;;;;;;;20.52;13.00;;;;;;;;;;4977205;28;20053;-80
2023/12/02 11:53:53;;;;;;;18.98;11.57;;;;;;;;;;4958345;28;20042;-79
2023/12/02 11:56:20;;;;;;;27.67;14.27;;;;;;;;;;4978681;28;20133;-79
2023/12/02 11:58:58;;;;;;;25.27;13.90;;;;;;;;;;4979082;28;20035;-79
2023/12/02 12:01:42;;;;;;;22.13;12.60;;;;;;;;;;4965477;28;20039;-79
2023/12/02 12:04:20;;;;;;;20.38;12.02;;;;;;;;;;4962065;28;20142;-80
2023/12/02 12:06:50;;;;;;;24.42;13.43;;;;;;;;;;4963136;28;20047;-79
2023/12/02 12:09:23;;;;;;;27.10;14.90;;;;;;;;;;4964558;28;20054;-80
2023/12/02 12:11:52;;;;;;;26.70;15.70;;;;;;;;;;4972412;28;20050;-77
2023/12/02 12:14:18;;;;;;;35.55;18.33;;;;;;;;;;4961587;28;20102;-80
2023/12/02 12:16:44;;;;;;;40.20;19.40;;;;;;;;;;4974127;28;20106;-80
2023/12/02 12:19:11;;;;;;;44.25;21.90;;;;;;;;;;4977477;28;20043;-80
2023/12/02 12:21:37;;;;;;;23.67;14.07;;;;;;;;;;4961108;28;20053;-79
2023/12/02 12:24:03;;;;;;;22.08;14.50;;;;;;;;;;4978407;28;20105;-80
2023/12/02 12:26:30;;;;;;;24.65;13.20;;;;;;;;;;4974593;28;20035;-81
2023/12/02 12:28:57;;;;;;;27.80;13.40;;;;;;;;;;4973145;28;20122;-79
2023/12/02 12:31:23;;;;;;;39.22;22.17;;;;;;;;;;4977786;28;20035;-80
2023/12/02 12:33:49;;;;;;;33.38;18.08;;;;;;;;;;4960038;28;20043;-79
2023/12/02 12:36:16;;;;;;;22.05;14.60;;;;;;;;;;4959736;28;20050;-79
2023/12/02 12:38:44;;;;;;;27.02;14.75;;;;;;;;;;4939686;28;20042;-80
2023/12/02 12:41:10;;;;;;;25.30;15.43;;;;;;;;;;4945706;28;20043;-79
2023/12/02 12:43:37;;;;;;;25.48;15.80;;;;;;;;;;4978025;28;20042;-80
2023/12/02 12:46:03;;;;;;;32.50;17.02;;;;;;;;;;4970365;28;20069;-80
2023/12/02 12:48:29;;;;;;;30.65;17.02;;;;;;;;;;4972634;28;20054;-78
2023/12/02 12:50:59;;;;;;;35.17;20.08;;;;;;;;;;4985636;28;20149;-80
2023/12/02 12:53:29;;;;;;;35.95;19.77;;;;;;;;;;4975673;28;20107;-81
2023/12/02 12:55:58;;;;;;;33.55;18.65;;;;;;;;;;4963144;28;20042;-80
2023/12/02 12:58:24;;;;;;;35.88;18.55;;;;;;;;;;4972176;28;20051;-79
2023/12/02 13:00:50;;;;;;;28.42;16.85;;;;;;;;;;4953358;29;20041;-79
2023/12/02 13:03:35;;;;;;;28.77;14.82;;;;;;;;;;4964504;28;20086;-80
2023/12/02 13:06:06;;;;;;;31.60;14.75;;;;;;;;;;4980698;28;20420;-80
2023/12/02 13:08:34;;;;;;;29.45;15.15;;;;;;;;;;4978920;28;20038;-80
2023/12/02 13:11:03;;;;;;;26.70;15.50;;;;;;;;;;4965380;28;20452;-82
2023/12/02 13:13:30;;;;;;;25.88;15.82;;;;;;;;;;4991456;28;20043;-80
2023/12/02 13:15:56;;;;;;;23.50;14.60;;;;;;;;;;4966783;28;20042;-81
2023/12/02 13:18:23;;;;;;;26.48;17.42;;;;;;;;;;4961507;28;20081;-81
2023/12/02 13:20:49;;;;;;;23.58;13.10;;;;;;;;;;4966532;28;20043;-80
2023/12/02 13:23:17;;;;;;;23.27;11.32;;;;;;;;;;4985493;28;20657;-80
2023/12/02 13:25:43;;;;;;;33.72;17.00;;;;;;;;;;4961171;28;20054;-79
2023/12/02 13:28:32;;;;;;;31.92;18.27;;;;;;;;;;4967123;28;20043;-79
2023/12/02 13:31:00;;;;;;;31.85;18.73;;;;;;;;;;4986981;28;20047;-81
2023/12/02 13:33:26;;;;;;;29.88;16.98;;;;;;;;;;4949332;28;20038;-80
2023/12/02 13:36:05;;;;;;;21.88;13.82;;;;;;;;;;4968857;28;20095;-82
2023/12/02 13:38:34;;;;;;;27.73;14.93;;;;;;;;;;4977025;28;20073;-81
2023/12/02 13:41:10;;;;;;;25.23;13.75;;;;;;;;;;4972927;28;20070;-81
2023/12/02 13:43:37;;;;;;;24.70;13.30;;;;;;;;;;4982059;28;20035;-82
2023/12/02 13:46:04;;;;;;;24.30;14.55;;;;;;;;;;4974080;28;20046;-82
2023/12/02 13:48:53;;;;;;;29.35;12.60;;;;;;;;;;4982193;28;20047;-80
2023/12/02 13:51:29;;;;;;;37.80;21.08;;;;;;;;;;4956303;28;20039;-80
2023/12/02 13:53:55;;;;;;;27.27;15.48;;;;;;;;;;4953633;28;20043;-81
2023/12/02 13:56:23;;;;;;;36.65;19.13;;;;;;;;;;4978098;28;20129;-80
2023/12/02 13:59:07;;;;;;;17.13;10.82;;;;;;;;;;4957363;28;20083;-81
2023/12/02 14:01:34;;;;;;;22.63;12.30;;;;;;;;;;4990300;28;20039;-80
2023/12/02 14:04:00;;;;;;;19.40;12.43;;;;;;;;;;4969778;28;20058;-82
2023/12/02 14:06:46;;;;;;;26.90;13.73;;;;;;;;;;4993121;28;20043;-83
2023/12/02 14:09:14;;;;;;;29.73;14.65;;;;;;;;;;4973496;28;20057;-79
2023/12/02 14:11:41;;;;;;;30.40;17.88;;;;;;;;;;4984525;28;20514;-79
2023/12/02 14:14:07;;;;;;;41.08;20.98;;;;;;;;;;4973146;28;20101;-79
2023/12/02 14:16:37;;;;;;;19.05;13.52;;;;;;;;;;4970881;28;20038;-80
2023/12/02 14:19:22;;;;;;;35.08;18.83;;;;;;;;;;4953800;28;20066;-81
2023/12/02 14:22:07;;;;;;;18.33;11.10;;;;;;;;;;4976929;28;20543;-81
2023/12/02 14:24:56;;;;;;;30.90;17.23;;;;;;;;;;4981822;28;20111;-80
2023/12/02 14:27:38;;;;;;;29.20;15.57;;;;;;;;;;4962582;28;20050;-80